createdAt,value
2023-05-22T00:00:10.662Z,340.00
2023-05-22T00:00:40.766Z,341.00
2023-05-22T00:01:40.691Z,344.00
2023-05-22T00:02:10.850Z,345.00
2023-05-22T00:02:40.809Z,344.00
2023-05-22T00:03:10.872Z,345.00
2023-05-22T00:03:40.909Z,344.00
2023-05-22T00:04:10.929Z,345.00
2023-05-22T00:04:41.021Z,345.00
2023-05-22T00:05:11.002Z,342.00
2023-05-22T00:05:41.157Z,342.00
2023-05-22T00:06:11.132Z,342.00
2023-05-22T00:06:41.160Z,344.00
2023-05-22T00:07:11.183Z,344.00
2023-05-22T00:07:41.198Z,345.00
2023-05-22T00:08:11.222Z,344.00
2023-05-22T00:08:41.269Z,345.00
2023-05-22T00:09:11.307Z,342.00
2023-05-22T00:09:41.341Z,341.00
2023-05-22T00:10:11.374Z,343.00
2023-05-22T00:10:41.513Z,343.00
2023-05-22T00:11:11.399Z,344.00
2023-05-22T00:11:41.446Z,346.00
2023-05-22T00:12:11.473Z,344.00
2023-05-22T00:12:41.510Z,344.00
2023-05-22T00:13:11.526Z,345.00
2023-05-22T00:13:41.567Z,345.00
2023-05-22T00:14:11.596Z,345.00
2023-05-22T00:14:41.611Z,346.00
2023-05-22T00:15:11.664Z,345.00
2023-05-22T00:15:41.687Z,346.00
2023-05-22T00:16:11.697Z,347.00
2023-05-22T00:16:41.764Z,346.00
2023-05-22T00:17:11.843Z,345.00
2023-05-22T00:17:41.886Z,347.00
2023-05-22T00:18:11.968Z,348.00
2023-05-22T00:18:41.993Z,346.00
2023-05-22T00:19:12.101Z,346.00
2023-05-22T00:20:12.073Z,346.00
2023-05-22T00:20:42.063Z,345.00
2023-05-22T00:21:12.170Z,345.00
2023-05-22T00:21:42.287Z,344.00
2023-05-22T00:22:12.398Z,343.00
2023-05-22T00:22:42.536Z,343.00
2023-05-22T00:23:15.266Z,344.00
2023-05-22T00:23:42.541Z,344.00
2023-05-22T00:24:12.532Z,341.00
2023-05-22T00:24:42.643Z,342.00
2023-05-22T00:25:12.759Z,340.00
2023-05-22T00:25:42.899Z,342.00
2023-05-22T00:26:12.872Z,340.00
2023-05-22T00:26:42.993Z,341.00
2023-05-22T00:27:13.102Z,340.00
2023-05-22T00:27:43.242Z,340.00
2023-05-22T00:28:13.233Z,339.00
2023-05-22T00:28:43.265Z,339.00
2023-05-22T00:29:13.284Z,338.00
2023-05-22T00:29:43.310Z,338.00
2023-05-22T00:30:13.329Z,339.00
2023-05-22T00:30:43.361Z,339.00
2023-05-22T00:31:13.416Z,338.00
2023-05-22T00:31:43.413Z,339.00
2023-05-22T00:32:13.440Z,339.00
2023-05-22T00:32:43.495Z,339.00
2023-05-22T00:33:13.558Z,340.00
2023-05-22T00:33:43.618Z,341.00
2023-05-22T00:34:13.661Z,342.00
2023-05-22T00:34:43.786Z,341.00
2023-05-22T00:35:13.698Z,343.00
2023-05-22T00:35:43.721Z,344.00
2023-05-22T00:36:13.752Z,345.00
2023-05-22T00:36:43.786Z,344.00
2023-05-22T00:37:13.814Z,346.00
2023-05-22T00:37:43.839Z,348.00
2023-05-22T00:38:13.870Z,348.00
2023-05-22T00:38:43.884Z,347.00
2023-05-22T00:39:13.911Z,349.00
2023-05-22T00:39:43.937Z,350.00
2023-05-22T00:40:13.988Z,349.00
2023-05-22T00:40:44.004Z,350.00
2023-05-22T00:41:14.032Z,349.00
2023-05-22T00:41:44.095Z,349.00
2023-05-22T00:42:14.141Z,350.00
2023-05-22T00:42:44.150Z,349.00
2023-05-22T00:43:14.170Z,346.00
2023-05-22T00:43:44.207Z,344.00
2023-05-22T00:44:14.225Z,341.00
2023-05-22T00:44:44.248Z,342.00
2023-05-22T00:45:14.295Z,343.00
2023-05-22T00:45:44.328Z,343.00
2023-05-22T00:46:14.491Z,346.00
2023-05-22T00:46:44.523Z,345.00
2023-05-22T00:47:14.426Z,347.00
2023-05-22T00:47:44.513Z,350.00
2023-05-22T00:48:14.525Z,350.00
2023-05-22T00:48:44.552Z,351.00
2023-05-22T00:49:14.573Z,350.00
2023-05-22T00:49:44.592Z,348.00
2023-05-22T00:50:14.619Z,346.00
2023-05-22T00:50:44.664Z,345.00
2023-05-22T00:51:14.685Z,347.00
2023-05-22T00:51:44.708Z,347.00
2023-05-22T00:52:14.743Z,348.00
2023-05-22T00:52:44.750Z,349.00
2023-05-22T00:53:14.775Z,349.00
2023-05-22T00:53:44.792Z,349.00
2023-05-22T00:54:14.814Z,349.00
2023-05-22T00:54:44.837Z,349.00
2023-05-22T00:55:15.180Z,347.00
2023-05-22T00:55:44.948Z,347.00
2023-05-22T00:56:44.983Z,346.00
2023-05-22T00:57:15.011Z,345.00
2023-05-22T00:57:45.054Z,347.00
2023-05-22T00:58:15.072Z,347.00
2023-05-22T00:58:45.100Z,345.00
2023-05-22T00:59:15.123Z,345.00
2023-05-22T00:59:45.148Z,344.00
2023-05-22T01:00:15.201Z,342.00
2023-05-22T01:00:45.210Z,342.00
2023-05-22T01:01:15.254Z,343.00
2023-05-22T01:01:45.330Z,345.00
2023-05-22T01:02:15.476Z,346.00
2023-05-22T01:02:45.526Z,347.00
2023-05-22T01:03:15.531Z,348.00
2023-05-22T01:03:45.755Z,348.00
2023-05-22T01:04:15.714Z,347.00
2023-05-22T01:04:45.523Z,347.00
2023-05-22T01:05:15.548Z,346.00
2023-05-22T01:05:45.569Z,346.00
2023-05-22T01:06:15.592Z,345.00
2023-05-22T01:06:45.618Z,345.00
2023-05-22T01:07:15.645Z,344.00
2023-05-22T01:07:45.672Z,344.00
2023-05-22T01:08:15.692Z,345.00
2023-05-22T01:08:45.719Z,345.00
2023-05-22T01:09:15.756Z,346.00
2023-05-22T01:09:45.784Z,346.00
2023-05-22T01:10:15.811Z,345.00
2023-05-22T01:10:45.831Z,346.00
2023-05-22T01:11:15.856Z,347.00
2023-05-22T01:11:45.880Z,346.00
2023-05-22T01:12:15.911Z,347.00
2023-05-22T01:12:45.941Z,344.00
2023-05-22T01:13:15.972Z,344.00
2023-05-22T01:13:46.017Z,345.00
2023-05-22T01:14:16.055Z,344.00
2023-05-22T01:14:46.088Z,345.00
2023-05-22T01:15:16.102Z,346.00
2023-05-22T01:15:46.128Z,348.00
2023-05-22T01:16:16.201Z,346.00
2023-05-22T01:16:46.325Z,346.00
2023-05-22T01:17:16.294Z,346.00
2023-05-22T01:17:46.432Z,345.00
2023-05-22T01:18:16.408Z,343.00
2023-05-22T01:18:46.460Z,343.00
2023-05-22T01:19:16.580Z,345.00
2023-05-22T01:19:46.584Z,345.00
2023-05-22T01:20:16.690Z,346.00
2023-05-22T01:20:48.678Z,349.00
2023-05-22T01:21:16.865Z,351.00
2023-05-22T01:21:46.980Z,351.00
2023-05-22T01:22:17.095Z,350.00
2023-05-22T01:22:47.205Z,350.00
2023-05-22T01:23:17.307Z,351.00
2023-05-22T01:23:47.460Z,353.00
2023-05-22T01:24:17.431Z,354.00
2023-05-22T01:24:47.545Z,354.00
2023-05-22T01:25:17.664Z,353.00
2023-05-22T01:25:47.774Z,350.00
2023-05-22T01:26:17.889Z,348.00
2023-05-22T01:26:48.004Z,347.00
2023-05-22T01:27:18.003Z,347.00
2023-05-22T01:28:18.100Z,349.00
2023-05-22T01:28:48.135Z,350.00
2023-05-22T01:29:18.163Z,349.00
2023-05-22T01:29:48.192Z,351.00
2023-05-22T01:30:18.211Z,351.00
2023-05-22T01:30:48.230Z,349.00
2023-05-22T01:31:18.264Z,349.00
2023-05-22T01:31:48.283Z,350.00
2023-05-22T01:32:18.312Z,350.00
2023-05-22T01:32:48.457Z,350.00
2023-05-22T01:33:18.551Z,351.00
2023-05-22T01:33:48.708Z,349.00
2023-05-22T01:34:18.570Z,350.00
2023-05-22T01:34:48.602Z,350.00
2023-05-22T01:35:18.623Z,350.00
2023-05-22T01:35:48.646Z,349.00
2023-05-22T01:36:18.675Z,351.00
2023-05-22T01:36:48.719Z,351.00
2023-05-22T01:37:18.750Z,351.00
2023-05-22T01:37:48.787Z,349.00
2023-05-22T01:38:18.810Z,347.00
2023-05-22T01:38:48.844Z,348.00
2023-05-22T01:39:18.864Z,348.00
2023-05-22T01:39:48.931Z,349.00
2023-05-22T01:40:18.924Z,349.00
2023-05-22T01:40:48.952Z,349.00
2023-05-22T01:41:18.974Z,350.00
2023-05-22T01:41:49.004Z,351.00
2023-05-22T01:42:19.042Z,352.00
2023-05-22T01:42:49.074Z,352.00
2023-05-22T01:43:19.104Z,353.00
2023-05-22T01:43:49.124Z,353.00
2023-05-22T01:44:19.153Z,353.00
2023-05-22T01:44:49.190Z,353.00
2023-05-22T01:45:19.212Z,352.00
2023-05-22T01:45:49.299Z,354.00
2023-05-22T01:46:19.378Z,353.00
2023-05-22T01:46:49.409Z,352.00
2023-05-22T01:47:19.465Z,351.00
2023-05-22T01:47:49.511Z,352.00
2023-05-22T01:48:19.576Z,351.00
2023-05-22T01:48:49.574Z,349.00
2023-05-22T01:49:19.597Z,348.00
2023-05-22T01:49:49.618Z,348.00
2023-05-22T01:50:19.649Z,348.00
2023-05-22T01:50:49.684Z,348.00
2023-05-22T01:51:19.709Z,347.00
2023-05-22T01:51:49.736Z,348.00
2023-05-22T01:52:19.759Z,348.00
2023-05-22T01:52:49.814Z,348.00
2023-05-22T01:53:19.834Z,348.00
2023-05-22T01:53:49.862Z,348.00
2023-05-22T01:54:19.884Z,349.00
2023-05-22T01:54:49.907Z,348.00
2023-05-22T01:55:19.932Z,347.00
2023-05-22T01:55:49.962Z,345.00
2023-05-22T01:56:20.001Z,345.00
2023-05-22T01:56:50.035Z,346.00
2023-05-22T01:57:20.077Z,348.00
2023-05-22T01:57:50.084Z,349.00
2023-05-22T01:58:20.114Z,349.00
2023-05-22T01:58:50.142Z,348.00
2023-05-22T01:59:20.176Z,345.00
2023-05-22T01:59:50.205Z,345.00
2023-05-22T02:00:20.223Z,344.00
2023-05-22T02:00:50.576Z,343.00
2023-05-22T02:01:20.323Z,343.00
2023-05-22T02:01:50.408Z,341.00
2023-05-22T02:02:20.475Z,340.00
2023-05-22T02:02:50.592Z,340.00
2023-05-22T02:03:20.796Z,340.00
2023-05-22T02:03:50.675Z,340.00
2023-05-22T02:04:20.676Z,341.00
2023-05-22T02:04:50.692Z,342.00
2023-05-22T02:05:20.736Z,342.00
2023-05-22T02:05:50.755Z,343.00
2023-05-22T02:06:20.781Z,342.00
2023-05-22T02:06:50.814Z,341.00
2023-05-22T02:07:20.842Z,342.00
2023-05-22T02:07:50.889Z,342.00
2023-05-22T02:08:20.896Z,342.00
2023-05-22T02:08:50.911Z,342.00
2023-05-22T02:09:20.936Z,342.00
2023-05-22T02:09:50.962Z,341.00
2023-05-22T02:10:21.016Z,342.00
2023-05-22T02:10:51.022Z,342.00
2023-05-22T02:11:21.049Z,343.00
2023-05-22T02:11:51.076Z,345.00
2023-05-22T02:12:21.123Z,347.00
2023-05-22T02:12:51.130Z,349.00
2023-05-22T02:13:21.150Z,347.00
2023-05-22T02:13:51.179Z,348.00
2023-05-22T02:14:21.201Z,348.00
2023-05-22T02:14:51.261Z,350.00
2023-05-22T02:15:21.291Z,351.00
2023-05-22T02:15:51.377Z,352.00
2023-05-22T02:16:21.530Z,353.00
2023-05-22T02:16:51.500Z,353.00
2023-05-22T02:17:21.524Z,353.00
2023-05-22T02:17:51.569Z,352.00
2023-05-22T02:18:21.570Z,353.00
2023-05-22T02:18:51.706Z,353.00
2023-05-22T02:19:21.910Z,353.00
2023-05-22T02:19:51.797Z,353.00
2023-05-22T02:20:51.861Z,352.00
2023-05-22T02:21:21.964Z,352.00
2023-05-22T02:21:52.076Z,353.00
2023-05-22T02:22:22.202Z,352.00
2023-05-22T02:22:52.198Z,352.00
2023-05-22T02:23:22.313Z,351.00
2023-05-22T02:23:52.426Z,349.00
2023-05-22T02:24:22.550Z,349.00
2023-05-22T02:24:52.543Z,349.00
2023-05-22T02:25:22.650Z,348.00
2023-05-22T02:25:52.770Z,349.00
2023-05-22T02:26:22.886Z,349.00
2023-05-22T02:26:52.953Z,351.00
2023-05-22T02:27:23.053Z,353.00
2023-05-22T02:27:53.168Z,355.00
2023-05-22T02:28:23.184Z,354.00
2023-05-22T02:28:53.215Z,354.00
2023-05-22T02:29:23.253Z,351.00
2023-05-22T02:29:53.282Z,353.00
2023-05-22T02:30:23.303Z,353.00
2023-05-22T02:30:53.444Z,352.00
2023-05-22T02:31:23.441Z,351.00
2023-05-22T02:31:53.462Z,352.00
2023-05-22T02:32:23.539Z,351.00
2023-05-22T02:32:53.628Z,352.00
2023-05-22T02:33:23.674Z,353.00
2023-05-22T02:33:53.735Z,350.00
2023-05-22T02:34:23.749Z,349.00
2023-05-22T02:34:54.834Z,349.00
2023-05-22T02:35:23.833Z,348.00
2023-05-22T02:35:53.871Z,349.00
2023-05-22T02:36:23.881Z,348.00
2023-05-22T02:36:53.901Z,349.00
2023-05-22T02:37:23.942Z,348.00
2023-05-22T02:37:53.956Z,348.00
2023-05-22T02:38:23.999Z,347.00
2023-05-22T02:38:54.015Z,347.00
2023-05-22T02:39:24.044Z,347.00
2023-05-22T02:39:54.066Z,347.00
2023-05-22T02:40:24.094Z,347.00
2023-05-22T02:40:54.122Z,348.00
2023-05-22T02:41:24.142Z,348.00
2023-05-22T02:41:54.169Z,347.00
2023-05-22T02:42:24.206Z,347.00
2023-05-22T02:42:54.236Z,346.00
2023-05-22T02:43:24.273Z,347.00
2023-05-22T02:43:54.305Z,350.00
2023-05-22T02:44:24.325Z,352.00
2023-05-22T02:44:54.346Z,352.00
2023-05-22T02:45:24.372Z,352.00
2023-05-22T02:45:54.409Z,353.00
2023-05-22T02:46:24.450Z,351.00
2023-05-22T02:46:54.610Z,351.00
2023-05-22T02:47:24.567Z,351.00
2023-05-22T02:47:54.636Z,352.00
2023-05-22T02:48:24.656Z,351.00
2023-05-22T02:48:54.672Z,352.00
2023-05-22T02:49:24.700Z,354.00
2023-05-22T02:49:54.733Z,354.00
2023-05-22T02:50:24.782Z,354.00
2023-05-22T02:50:54.776Z,353.00
2023-05-22T02:51:24.808Z,353.00
2023-05-22T02:51:54.827Z,351.00
2023-05-22T02:52:24.872Z,352.00
2023-05-22T02:52:54.894Z,352.00
2023-05-22T02:53:24.923Z,353.00
2023-05-22T02:53:54.945Z,354.00
2023-05-22T02:54:24.960Z,354.00
2023-05-22T02:54:54.988Z,353.00
2023-05-22T02:55:25.022Z,353.00
2023-05-22T02:55:55.036Z,354.00
2023-05-22T02:56:25.064Z,352.00
2023-05-22T02:56:55.095Z,352.00
2023-05-22T02:57:25.134Z,351.00
2023-05-22T02:57:55.171Z,354.00
2023-05-22T02:58:25.212Z,354.00
2023-05-22T02:58:55.221Z,356.00
2023-05-22T02:59:25.252Z,354.00
2023-05-22T02:59:55.278Z,355.00
2023-05-22T03:00:25.314Z,354.00
2023-05-22T03:00:55.328Z,355.00
2023-05-22T03:01:25.392Z,356.00
2023-05-22T03:01:55.466Z,357.00
2023-05-22T03:02:25.621Z,359.00
2023-05-22T03:02:55.535Z,358.00
2023-05-22T03:03:55.837Z,359.00
2023-05-22T03:04:25.711Z,358.00
2023-05-22T03:04:55.718Z,359.00
2023-05-22T03:05:25.764Z,358.00
2023-05-22T03:05:55.793Z,358.00
2023-05-22T03:06:25.821Z,358.00
2023-05-22T03:06:55.861Z,358.00
2023-05-22T03:07:25.894Z,359.00
2023-05-22T03:07:55.919Z,359.00
2023-05-22T03:08:25.938Z,358.00
2023-05-22T03:08:55.968Z,358.00
2023-05-22T03:09:25.990Z,360.00
2023-05-22T03:09:56.016Z,358.00
2023-05-22T03:10:26.040Z,358.00
2023-05-22T03:10:56.077Z,359.00
2023-05-22T03:11:26.112Z,359.00
2023-05-22T03:11:56.136Z,358.00
2023-05-22T03:12:26.162Z,358.00
2023-05-22T03:12:56.204Z,357.00
2023-05-22T03:13:26.216Z,355.00
2023-05-22T03:13:56.216Z,353.00
2023-05-22T03:14:26.242Z,353.00
2023-05-22T03:14:56.274Z,354.00
2023-05-22T03:15:26.301Z,354.00
2023-05-22T03:15:56.425Z,355.00
2023-05-22T03:16:26.437Z,354.00
2023-05-22T03:16:56.377Z,352.00
2023-05-22T03:17:26.440Z,351.00
2023-05-22T03:17:56.533Z,353.00
2023-05-22T03:18:27.460Z,354.00
2023-05-22T03:18:56.677Z,354.00
2023-05-22T03:19:27.159Z,354.00
2023-05-22T03:19:56.896Z,355.00
2023-05-22T03:20:27.029Z,355.00
2023-05-22T03:20:57.020Z,354.00
2023-05-22T03:21:27.215Z,351.00
2023-05-22T03:21:57.169Z,350.00
2023-05-22T03:22:27.203Z,350.00
2023-05-22T03:22:57.170Z,355.00
2023-05-22T03:23:27.294Z,358.00
2023-05-22T03:23:57.305Z,362.00
2023-05-22T03:24:27.418Z,394.00
2023-05-22T03:24:57.701Z,411.00
2023-05-22T03:25:27.580Z,415.00
2023-05-22T03:25:57.568Z,416.00
2023-05-22T03:26:27.692Z,412.00
2023-05-22T03:26:57.788Z,427.00
2023-05-22T03:27:27.903Z,414.00
2023-05-22T03:27:58.024Z,406.00
2023-05-22T03:28:28.034Z,405.00
2023-05-22T03:28:58.118Z,405.00
2023-05-22T03:29:28.136Z,405.00
2023-05-22T03:29:58.171Z,405.00
2023-05-22T03:30:28.186Z,411.00
2023-05-22T03:30:58.208Z,425.00
2023-05-22T03:31:28.239Z,433.00
2023-05-22T03:31:58.263Z,436.00
2023-05-22T03:32:28.328Z,433.00
2023-05-22T03:32:58.377Z,430.00
2023-05-22T03:33:28.429Z,428.00
2023-05-22T03:33:58.538Z,425.00
2023-05-22T03:34:28.552Z,414.00
2023-05-22T03:34:58.591Z,411.00
2023-05-22T03:35:28.605Z,406.00
2023-05-22T03:35:58.631Z,403.00
2023-05-22T03:36:29.937Z,401.00
2023-05-22T03:36:58.721Z,401.00
2023-05-22T03:37:28.737Z,399.00
2023-05-22T03:37:58.759Z,398.00
2023-05-22T03:38:28.793Z,399.00
2023-05-22T03:38:58.820Z,399.00
2023-05-22T03:39:28.841Z,401.00
2023-05-22T03:39:58.874Z,402.00
2023-05-22T03:40:28.887Z,406.00
2023-05-22T03:40:58.922Z,406.00
2023-05-22T03:41:28.945Z,404.00
2023-05-22T03:41:58.971Z,402.00
2023-05-22T03:42:28.993Z,400.00
2023-05-22T03:42:59.039Z,400.00
2023-05-22T03:43:29.112Z,397.00
2023-05-22T03:43:59.175Z,395.00
2023-05-22T03:44:29.204Z,395.00
2023-05-22T03:44:59.234Z,395.00
2023-05-22T03:45:29.292Z,394.00
2023-05-22T03:45:59.363Z,394.00
2023-05-22T03:46:29.695Z,395.00
2023-05-22T03:46:59.415Z,395.00
2023-05-22T03:47:29.467Z,394.00
2023-05-22T03:47:59.522Z,395.00
2023-05-22T03:48:29.561Z,394.00
2023-05-22T03:48:59.575Z,394.00
2023-05-22T03:49:29.598Z,393.00
2023-05-22T03:49:59.629Z,392.00
2023-05-22T03:50:29.652Z,391.00
2023-05-22T03:50:59.675Z,392.00
2023-05-22T03:51:29.698Z,391.00
2023-05-22T03:51:59.724Z,392.00
2023-05-22T03:52:30.020Z,391.00
2023-05-22T03:52:59.761Z,392.00
2023-05-22T03:53:59.885Z,392.00
2023-05-22T03:54:29.918Z,391.00
2023-05-22T03:54:59.953Z,390.00
2023-05-22T03:55:29.972Z,389.00
2023-05-22T03:56:00.000Z,388.00
2023-05-22T03:56:30.031Z,389.00
2023-05-22T03:57:00.054Z,385.00
2023-05-22T03:57:30.079Z,385.00
2023-05-22T03:58:00.127Z,388.00
2023-05-22T03:58:30.124Z,390.00
2023-05-22T03:59:00.146Z,393.00
2023-05-22T03:59:30.185Z,403.00
2023-05-22T04:00:00.199Z,407.00
2023-05-22T04:00:30.232Z,410.00
2023-05-22T04:01:00.255Z,415.00
2023-05-22T04:01:30.295Z,419.00
2023-05-22T04:02:00.360Z,422.00
2023-05-22T04:02:30.504Z,420.00
2023-05-22T04:03:00.540Z,423.00
2023-05-22T04:03:30.608Z,422.00
2023-05-22T04:04:00.664Z,420.00
2023-05-22T04:04:30.660Z,423.00
2023-05-22T04:05:00.745Z,421.00
2023-05-22T04:05:30.848Z,425.00
2023-05-22T04:06:00.784Z,427.00
2023-05-22T04:06:30.821Z,431.00
2023-05-22T04:07:00.854Z,435.00
2023-05-22T04:07:30.875Z,436.00
2023-05-22T04:08:01.070Z,436.00
2023-05-22T04:08:30.918Z,437.00
2023-05-22T04:09:30.943Z,446.00
2023-05-22T04:10:00.959Z,448.00
2023-05-22T04:10:30.986Z,449.00
2023-05-22T04:11:01.034Z,449.00
2023-05-22T04:11:31.070Z,448.00
2023-05-22T04:12:01.105Z,441.00
2023-05-22T04:12:31.110Z,444.00
2023-05-22T04:13:01.136Z,450.00
2023-05-22T04:13:31.165Z,449.00
2023-05-22T04:14:01.184Z,450.00
2023-05-22T04:14:31.205Z,452.00
2023-05-22T04:15:01.226Z,454.00
2023-05-22T04:15:31.350Z,453.00
2023-05-22T04:16:01.403Z,452.00
2023-05-22T04:16:31.469Z,452.00
2023-05-22T04:17:01.417Z,455.00
2023-05-22T04:17:31.482Z,458.00
2023-05-22T04:18:01.570Z,458.00
2023-05-22T04:18:31.599Z,456.00
2023-05-22T04:19:01.770Z,456.00
2023-05-22T04:19:31.820Z,460.00
2023-05-22T04:20:01.834Z,463.00
2023-05-22T04:20:31.936Z,469.00
2023-05-22T04:21:01.926Z,470.00
2023-05-22T04:21:31.977Z,470.00
2023-05-22T04:22:02.101Z,470.00
2023-05-22T04:22:32.202Z,471.00
2023-05-22T04:23:02.317Z,471.00
2023-05-22T04:23:32.458Z,470.00
2023-05-22T04:24:02.539Z,466.00
2023-05-22T04:24:32.650Z,465.00
2023-05-22T04:25:02.779Z,464.00
2023-05-22T04:25:32.763Z,464.00
2023-05-22T04:26:02.873Z,465.00
2023-05-22T04:26:32.985Z,466.00
2023-05-22T04:27:03.112Z,467.00
2023-05-22T04:27:33.218Z,466.00
2023-05-22T04:28:03.331Z,466.00
2023-05-22T04:28:33.352Z,468.00
2023-05-22T04:29:03.375Z,468.00
2023-05-22T04:29:33.417Z,469.00
2023-05-22T04:30:03.468Z,464.00
2023-05-22T04:30:33.478Z,467.00
2023-05-22T04:31:03.519Z,462.00
2023-05-22T04:31:33.578Z,462.00
2023-05-22T04:32:03.634Z,460.00
2023-05-22T04:32:33.680Z,459.00
2023-05-22T04:33:03.750Z,459.00
2023-05-22T04:33:33.785Z,459.00
2023-05-22T04:34:03.828Z,461.00
2023-05-22T04:34:33.864Z,459.00
2023-05-22T04:35:03.902Z,461.00
2023-05-22T04:35:33.920Z,460.00
2023-05-22T04:36:03.950Z,460.00
2023-05-22T04:36:33.977Z,460.00
2023-05-22T04:37:03.996Z,459.00
2023-05-22T04:37:34.039Z,461.00
2023-05-22T04:38:04.058Z,459.00
2023-05-22T04:38:34.073Z,460.00
2023-05-22T04:39:04.200Z,462.00
2023-05-22T04:39:34.217Z,465.00
2023-05-22T04:40:04.240Z,463.00
2023-05-22T04:40:34.306Z,464.00
2023-05-22T04:41:04.364Z,465.00
2023-05-22T04:41:34.457Z,466.00
2023-05-22T04:42:04.463Z,466.00
2023-05-22T04:42:34.509Z,472.00
2023-05-22T04:43:04.531Z,471.00
2023-05-22T04:43:34.562Z,473.00
2023-05-22T04:44:04.595Z,473.00
2023-05-22T04:44:34.627Z,474.00
2023-05-22T04:45:04.643Z,473.00
2023-05-22T04:45:34.662Z,474.00
2023-05-22T04:46:04.707Z,476.00
2023-05-22T04:46:34.832Z,475.00
2023-05-22T04:47:07.447Z,476.00
2023-05-22T04:47:34.903Z,477.00
2023-05-22T04:48:04.998Z,477.00
2023-05-22T04:48:35.036Z,476.00
2023-05-22T04:49:05.065Z,476.00
2023-05-22T04:49:35.082Z,475.00
2023-05-22T04:50:05.125Z,474.00
2023-05-22T04:50:35.159Z,474.00
2023-05-22T04:51:05.188Z,475.00
2023-05-22T04:51:35.303Z,475.00
2023-05-22T04:52:05.319Z,475.00
2023-05-22T04:52:35.347Z,480.00
2023-05-22T04:53:05.376Z,504.00
2023-05-22T04:53:35.412Z,491.00
2023-05-22T04:54:05.445Z,492.00
2023-05-22T04:54:35.542Z,495.00
2023-05-22T04:55:06.121Z,499.00
2023-05-22T04:55:35.667Z,500.00
2023-05-22T04:56:05.676Z,506.00
2023-05-22T04:56:37.211Z,513.00
2023-05-22T04:57:05.754Z,513.00
2023-05-22T04:57:35.781Z,513.00
2023-05-22T04:58:05.875Z,512.00
2023-05-22T04:58:35.894Z,512.00
2023-05-22T04:59:05.933Z,511.00
2023-05-22T04:59:35.982Z,510.00
2023-05-22T05:00:06.023Z,507.00
2023-05-22T05:00:36.106Z,505.00
2023-05-22T05:01:06.271Z,505.00
2023-05-22T05:01:36.219Z,504.00
2023-05-22T05:02:06.276Z,502.00
2023-05-22T05:02:36.331Z,501.00
2023-05-22T05:03:06.455Z,498.00
2023-05-22T05:03:36.559Z,503.00
2023-05-22T05:04:06.753Z,503.00
2023-05-22T05:04:36.556Z,506.00
2023-05-22T05:05:06.608Z,510.00
2023-05-22T05:05:36.665Z,510.00
2023-05-22T05:06:06.692Z,508.00
2023-05-22T05:06:36.713Z,510.00
2023-05-22T05:07:06.998Z,508.00
2023-05-22T05:07:36.789Z,507.00
2023-05-22T05:08:36.796Z,502.00
2023-05-22T05:09:06.836Z,502.00
2023-05-22T05:09:36.861Z,503.00
2023-05-22T05:10:07.343Z,504.00
2023-05-22T05:10:36.992Z,507.00
2023-05-22T05:11:37.080Z,503.00
2023-05-22T05:12:07.120Z,503.00
2023-05-22T05:12:37.137Z,502.00
2023-05-22T05:13:07.160Z,500.00
2023-05-22T05:13:37.181Z,497.00
2023-05-22T05:14:07.207Z,494.00
2023-05-22T05:14:37.229Z,492.00
2023-05-22T05:15:07.261Z,491.00
2023-05-22T05:15:37.279Z,491.00
2023-05-22T05:16:07.463Z,490.00
2023-05-22T05:16:37.380Z,489.00
2023-05-22T05:17:07.433Z,487.00
2023-05-22T05:17:37.475Z,484.00
2023-05-22T05:18:07.549Z,481.00
2023-05-22T05:18:37.571Z,479.00
2023-05-22T05:19:07.740Z,479.00
2023-05-22T05:19:37.778Z,481.00
2023-05-22T05:20:07.776Z,481.00
2023-05-22T05:20:38.029Z,480.00
2023-05-22T05:21:07.946Z,480.00
2023-05-22T05:21:37.944Z,481.00
2023-05-22T05:22:07.950Z,480.00
2023-05-22T05:22:37.957Z,480.00
2023-05-22T05:23:08.069Z,480.00
2023-05-22T05:23:38.184Z,480.00
2023-05-22T05:24:08.296Z,481.00
2023-05-22T05:24:38.312Z,482.00
2023-05-22T05:26:17.533Z,466.00
2023-05-22T05:26:47.481Z,482.00
2023-05-22T05:27:17.548Z,480.00
2023-05-22T05:27:47.623Z,479.00
2023-05-22T05:28:17.698Z,477.00
2023-05-22T05:28:47.779Z,479.00
2023-05-22T05:29:17.860Z,480.00
2023-05-22T05:29:47.932Z,479.00
2023-05-22T05:30:20.332Z,476.00
2023-05-22T05:30:48.124Z,479.00
2023-05-22T05:31:18.256Z,480.00
2023-05-22T05:31:48.307Z,480.00
2023-05-22T05:32:18.368Z,479.00
2023-05-22T05:32:48.405Z,478.00
2023-05-22T05:33:18.476Z,476.00
2023-05-22T05:33:48.551Z,475.00
2023-05-22T05:34:18.665Z,474.00
2023-05-22T05:34:48.753Z,476.00
2023-05-22T05:35:18.881Z,477.00
2023-05-22T05:35:48.842Z,479.00
2023-05-22T05:36:18.939Z,480.00
2023-05-22T05:36:49.052Z,484.00
2023-05-22T05:37:19.161Z,489.00
2023-05-22T05:37:49.270Z,492.00
2023-05-22T05:38:19.394Z,491.00
2023-05-22T05:38:49.515Z,487.00
2023-05-22T05:39:19.642Z,484.00
2023-05-22T05:39:49.646Z,480.00
2023-05-22T05:40:19.750Z,478.00
2023-05-22T05:40:49.932Z,474.00
2023-05-22T05:41:19.909Z,472.00
2023-05-22T05:41:50.039Z,471.00
2023-05-22T05:42:20.138Z,468.00
2023-05-22T05:42:50.260Z,466.00
2023-05-22T05:43:20.278Z,464.00
2023-05-22T05:43:50.269Z,463.00
2023-05-22T05:44:20.289Z,461.00
2023-05-22T05:44:50.286Z,459.00
2023-05-22T05:45:20.399Z,458.00
2023-05-22T05:45:50.408Z,455.00
2023-05-22T05:46:20.532Z,457.00
2023-05-22T05:46:50.578Z,455.00
2023-05-22T05:47:20.727Z,452.00
2023-05-22T05:47:50.725Z,452.00
2023-05-22T05:48:20.702Z,450.00
2023-05-22T05:48:50.719Z,451.00
2023-05-22T05:49:20.702Z,451.00
2023-05-22T05:50:20.831Z,450.00
2023-05-22T05:50:50.825Z,448.00
2023-05-22T05:51:50.866Z,449.00
2023-05-22T05:52:20.976Z,447.00
2023-05-22T05:52:51.038Z,448.00
2023-05-22T05:53:21.152Z,447.00
2023-05-22T05:53:51.146Z,450.00
2023-05-22T05:54:21.254Z,448.00
2023-05-22T05:54:51.372Z,451.00
2023-05-22T05:55:21.492Z,450.00
2023-05-22T05:55:51.602Z,451.00
2023-05-22T05:56:21.720Z,447.00
2023-05-22T05:56:51.821Z,453.00
2023-05-22T05:57:22.009Z,453.00
2023-05-22T05:57:52.021Z,453.00
2023-05-22T05:58:22.031Z,455.00
2023-05-22T05:59:22.081Z,456.00
2023-05-22T05:59:52.193Z,455.00
2023-05-22T06:00:22.209Z,457.00
2023-05-22T06:00:52.319Z,457.00
2023-05-22T06:01:22.429Z,455.00
2023-05-22T06:01:52.541Z,455.00
2023-05-22T06:02:22.734Z,454.00
2023-05-22T06:02:52.846Z,455.00
2023-05-22T06:03:22.991Z,453.00
2023-05-22T06:03:53.219Z,454.00
2023-05-22T06:04:22.879Z,454.00
2023-05-22T06:04:53.024Z,455.00
2023-05-22T06:05:23.178Z,454.00
2023-05-22T06:05:53.062Z,454.00
2023-05-22T06:06:23.085Z,454.00
2023-05-22T06:06:53.240Z,457.00
2023-05-22T06:07:23.238Z,459.00
2023-05-22T06:07:53.348Z,459.00
2023-05-22T06:08:23.480Z,465.00
2023-05-22T06:08:53.463Z,469.00
2023-05-22T06:09:23.574Z,471.00
2023-05-22T06:09:53.690Z,476.00
2023-05-22T06:10:23.684Z,480.00
2023-05-22T06:10:53.811Z,482.00
2023-05-22T06:11:23.908Z,482.00
2023-05-22T06:11:54.027Z,484.00
2023-05-22T06:12:24.160Z,484.00
2023-05-22T06:12:54.177Z,483.00
2023-05-22T06:13:54.233Z,477.00
2023-05-22T06:14:24.352Z,476.00
2023-05-22T06:14:54.343Z,478.00
2023-05-22T06:15:24.460Z,475.00
2023-05-22T06:15:54.602Z,475.00
2023-05-22T06:16:24.758Z,476.00
2023-05-22T06:16:54.682Z,475.00
2023-05-22T06:17:24.739Z,478.00
2023-05-22T06:17:54.784Z,479.00
2023-05-22T06:18:24.773Z,479.00
2023-05-22T06:18:54.926Z,478.00
2023-05-22T06:19:25.012Z,478.00
2023-05-22T06:19:54.993Z,479.00
2023-05-22T06:20:25.122Z,480.00
2023-05-22T06:20:55.111Z,482.00
2023-05-22T06:21:25.246Z,490.00
2023-05-22T06:21:55.230Z,479.00
2023-05-22T06:22:25.356Z,488.00
2023-05-22T06:22:55.465Z,485.00